Orient, Maine
Current Conditions -  °F | °C
As of 3:53 AM on Wednesday 22 Oct 2014 (Local Time) from KHUL Reporting Station
Overcast Overcast  
Wind Chill:   Ceiling: 5500
Heat Index:   Visibility: 10mi
Dew Point:   Wind: 6mph
Humidity: 83%   Direction: 20°NNE
Pressure: 30.26"   Gusts: NA
Location:  45.82°N, 67.84°W
Report Text: KHUL 220753Z AUTO 02005KT 10SM FEW036 OVC055 03/01 A3026 RMK AO2 SLP253 T00330006
Loading
Personal Weather Stations






























Interactive Weather Map
Tropical Storm Tracking
New forecast layout! Learn more

10-Day Weather Forecast

Advertisements
Track Severe Weather on mobile